Time;durP1;ratioP1;P1;durP2;ratioP2;P2;SDS_P1;SDS_P2;PMS_P1;PMS_P2;Temp;Humidity;BMP_temperature;BMP_pressure;BME280_temperature;BME280_humidity;BME280_pressure;Samples;Min_cycle;Max_cycle;Signal;HPM_P1;HPM_P2
2023/04/17 00:01:39;;;;;;;1999.90;999.90;;;7.80;99.90;;;;;;5061515;28;20407;-73
2023/04/17 00:04:09;;;;;;;1999.90;999.90;;;7.70;99.90;;;;;;5052848;28;20040;-73
2023/04/17 00:06:42;;;;;;;1999.90;999.90;;;7.70;99.90;;;;;;5069121;28;20017;-73
2023/04/17 00:09:08;;;;;;;1999.90;999.90;;;7.60;99.90;;;;;;5067245;28;20033;-74
2023/04/17 00:11:33;;;;;;;1999.90;999.90;;;7.70;99.90;;;;;;5059633;28;20028;-73
2023/04/17 00:13:59;;;;;;;1999.90;999.90;;;7.60;99.90;;;;;;5060685;28;20664;-73
2023/04/17 00:16:25;;;;;;;1999.90;999.90;;;7.50;99.90;;;;;;5042464;28;20037;-73
2023/04/17 00:18:52;;;;;;;1999.90;999.90;;;7.60;99.90;;;;;;5062595;28;20021;-73
2023/04/17 00:21:18;;;;;;;1999.90;999.90;;;7.50;99.90;;;;;;5063676;28;20033;-74
2023/04/17 00:23:44;;;;;;;1999.90;999.90;;;7.60;99.90;;;;;;5040976;28;20090;-73
2023/04/17 00:26:10;;;;;;;1999.90;999.90;;;7.60;99.90;;;;;;5053686;28;20029;-73
2023/04/17 00:28:36;;;;;;;1999.90;999.90;;;7.60;99.90;;;;;;5064432;28;20028;-73
2023/04/17 00:31:03;;;;;;;1999.90;999.90;;;7.70;99.90;;;;;;5057567;28;20029;-73
2023/04/17 00:33:30;;;;;;;1999.90;999.90;;;7.70;99.90;;;;;;5071478;28;20029;-73
2023/04/17 00:35:56;;;;;;;1999.90;999.90;;;7.70;99.90;;;;;;5069636;28;20057;-72
2023/04/17 00:38:21;;;;;;;1999.90;999.90;;;7.60;99.90;;;;;;5058786;28;20118;-73
2023/04/17 00:40:47;;;;;;;1999.90;999.90;;;7.80;99.90;;;;;;5060202;28;20041;-73
2023/04/17 00:43:13;;;;;;;1999.90;999.90;;;7.60;99.90;;;;;;5062514;28;20033;-73
2023/04/17 00:45:40;;;;;;;1999.90;999.90;;;7.60;99.90;;;;;;5063714;28;20051;-73
2023/04/17 00:48:08;;;;;;;1999.90;999.90;;;7.70;99.90;;;;;;5072818;28;20157;-73
2023/04/17 00:50:34;;;;;;;1999.90;999.90;;;7.60;99.90;;;;;;5047852;28;20040;-73
2023/04/17 00:53:00;;;;;;;1999.90;999.90;;;7.60;99.90;;;;;;5071947;28;20382;-73
2023/04/17 00:55:31;;;;;;;1999.90;999.90;;;7.70;99.90;;;;;;5052166;28;20033;-73
2023/04/17 00:57:57;;;;;;;1999.90;999.90;;;7.70;99.90;;;;;;5077665;28;20078;-73
2023/04/17 01:00:23;;;;;;;1999.90;999.90;;;7.70;99.90;;;;;;5067463;28;20559;-72
2023/04/17 01:02:49;;;;;;;1999.90;999.90;;;7.60;99.90;;;;;;5076622;28;20061;-73
2023/04/17 01:05:15;;;;;;;1999.90;999.90;;;7.70;99.90;;;;;;5063053;28;20064;-73
2023/04/17 01:07:41;;;;;;;1999.90;999.90;;;7.70;99.90;;;;;;5075205;28;20024;-73
2023/04/17 01:10:08;;;;;;;1999.90;999.90;;;7.70;99.90;;;;;;5070911;28;20155;-73
2023/04/17 01:12:34;;;;;;;1999.90;999.90;;;7.70;99.90;;;;;;5057785;28;20069;-73
2023/04/17 01:14:59;;;;;;;1999.90;999.90;;;7.60;99.90;;;;;;5067697;28;20051;-73
2023/04/17 01:17:26;;;;;;;1999.90;999.90;;;7.70;99.90;;;;;;5055076;28;20032;-72
2023/04/17 01:19:52;;;;;;;1999.90;999.90;;;7.70;99.90;;;;;;5065548;28;20028;-73
2023/04/17 01:22:19;;;;;;;1999.90;999.90;;;7.80;99.90;;;;;;5073618;28;20044;-73
2023/04/17 01:24:45;;;;;;;1999.90;999.90;;;7.80;99.90;;;;;;5050176;28;20155;-73
2023/04/17 01:27:14;;;;;;;1999.90;999.90;;;7.70;99.90;;;;;;5068047;28;20024;-73
2023/04/17 01:29:41;;;;;;;1999.90;999.90;;;7.70;99.90;;;;;;5059903;28;20174;-73
2023/04/17 01:32:07;;;;;;;1999.90;999.90;;;7.70;99.90;;;;;;5066699;28;20064;-73
2023/04/17 01:34:33;;;;;;;1999.90;999.90;;;7.70;99.90;;;;;;5070100;28;20052;-73
2023/04/17 01:36:59;;;;;;;1999.90;999.90;;;7.60;99.90;;;;;;5034368;28;20029;-72
2023/04/17 01:39:25;;;;;;;1999.90;999.90;;;7.50;99.90;;;;;;5064532;28;20025;-73
2023/04/17 01:41:51;;;;;;;1999.90;999.90;;;7.50;99.90;;;;;;5069936;28;20028;-72
2023/04/17 01:44:17;;;;;;;1999.90;999.90;;;7.50;99.90;;;;;;5070218;28;20089;-73
2023/04/17 01:46:43;;;;;;;1999.90;999.90;;;7.50;99.90;;;;;;5072535;28;20390;-74
2023/04/17 01:49:10;;;;;;;1999.90;999.90;;;7.50;99.90;;;;;;5052927;28;20038;-73
2023/04/17 01:51:36;;;;;;;1999.90;999.90;;;7.40;99.90;;;;;;5054835;28;20035;-72
2023/04/17 01:54:02;;;;;;;1999.90;999.90;;;7.40;99.90;;;;;;5060378;28;20024;-73
2023/04/17 01:56:27;;;;;;;1999.90;999.90;;;7.30;99.90;;;;;;5054069;28;20032;-72
2023/04/17 01:58:53;;;;;;;1999.90;999.90;;;7.30;99.90;;;;;;5071620;28;20033;-72
2023/04/17 02:01:19;;;;;;;1999.90;999.90;;;7.30;99.90;;;;;;5063006;28;20043;-72
2023/04/17 02:03:45;;;;;;;1999.90;999.90;;;7.30;99.90;;;;;;5067519;28;20375;-73
2023/04/17 02:06:11;;;;;;;1999.90;999.90;;;7.30;99.90;;;;;;5072061;28;20069;-73
2023/04/17 02:08:36;;;;;;;1999.90;999.90;;;7.20;99.90;;;;;;5052180;28;20028;-73
2023/04/17 02:11:02;;;;;;;1999.90;999.90;;;7.20;99.90;;;;;;5067548;28;20083;-73
2023/04/17 02:13:28;;;;;;;1999.90;999.90;;;7.20;99.90;;;;;;5050999;28;20044;-72
2023/04/17 02:15:54;;;;;;;1999.90;999.90;;;7.30;99.90;;;;;;5070789;28;20050;-73
2023/04/17 02:18:19;;;;;;;1999.90;999.90;;;7.40;99.90;;;;;;5065797;28;20086;-73
2023/04/17 02:20:45;;;;;;;1999.90;999.90;;;7.30;99.90;;;;;;5072840;28;20611;-73
2023/04/17 02:23:11;;;;;;;1999.90;999.90;;;7.30;99.90;;;;;;5068665;28;20056;-73
2023/04/17 02:25:37;;;;;;;1999.90;999.90;;;7.30;99.90;;;;;;5071182;28;20027;-73
2023/04/17 02:28:03;;;;;;;1999.90;999.90;;;7.30;99.90;;;;;;5071571;28;20107;-73
2023/04/17 02:30:29;;;;;;;1999.90;999.90;;;7.30;99.90;;;;;;5068802;28;20025;-73
2023/04/17 02:32:55;;;;;;;1999.90;999.90;;;7.30;99.90;;;;;;5064388;28;20025;-73
2023/04/17 02:35:24;;;;;;;1999.90;999.90;;;7.30;99.90;;;;;;5052880;28;20027;-73
2023/04/17 02:37:50;;;;;;;1999.90;999.90;;;7.10;99.90;;;;;;5063397;28;20121;-73
2023/04/17 02:40:16;;;;;;;1999.90;999.90;;;7.30;99.90;;;;;;5060191;28;20123;-72
2023/04/17 02:42:42;;;;;;;1999.90;999.90;;;7.30;99.90;;;;;;5056370;28;20036;-73
2023/04/17 02:45:09;;;;;;;1999.90;999.90;;;7.30;99.90;;;;;;5047872;28;20059;-72
2023/04/17 02:47:35;;;;;;;1999.90;999.90;;;7.20;99.90;;;;;;5072096;28;20470;-72
2023/04/17 02:50:01;;;;;;;1999.90;999.90;;;7.10;99.90;;;;;;5063770;28;20108;-72
2023/04/17 02:52:27;;;;;;;1999.90;999.90;;;7.10;99.90;;;;;;5072419;28;20048;-73
2023/04/17 02:54:53;;;;;;;1999.90;999.90;;;7.10;99.90;;;;;;5069487;28;20029;-73
2023/04/17 02:57:19;;;;;;;1999.90;999.90;;;7.10;99.90;;;;;;5055711;28;20025;-72
2023/04/17 02:59:45;;;;;;;1999.90;999.90;;;7.20;99.90;;;;;;5064778;28;20032;-72
2023/04/17 03:02:13;;;;;;;1999.90;999.90;;;7.10;99.90;;;;;;5071507;28;20481;-73
2023/04/17 03:04:39;;;;;;;1999.90;999.90;;;7.10;99.90;;;;;;5066588;28;20499;-73
2023/04/17 03:07:09;;;;;;;1999.90;999.90;;;7.20;99.90;;;;;;5071213;28;20036;-72
2023/04/17 03:09:35;;;;;;;1999.90;999.90;;;7.10;99.90;;;;;;5071093;28;20035;-73
2023/04/17 03:12:01;;;;;;;1999.90;999.90;;;7.00;99.90;;;;;;5064570;28;20108;-72
2023/04/17 03:14:26;;;;;;;1999.90;999.90;;;7.10;99.90;;;;;;5051060;28;20115;-73
2023/04/17 03:16:52;;;;;;;1999.90;999.90;;;7.10;99.90;;;;;;5053727;28;20029;-73
2023/04/17 03:19:18;;;;;;;1999.90;999.90;;;7.10;99.90;;;;;;5064446;28;20039;-73
2023/04/17 03:21:44;;;;;;;1999.90;999.90;;;7.00;99.90;;;;;;5043905;28;20041;-73
2023/04/17 03:24:11;;;;;;;1999.90;999.90;;;7.10;99.90;;;;;;5064113;28;20032;-73
2023/04/17 03:26:37;;;;;;;1999.90;999.90;;;7.10;99.90;;;;;;5066656;28;20029;-72
2023/04/17 03:29:03;;;;;;;1999.90;999.90;;;7.00;99.90;;;;;;5054942;28;20039;-72
2023/04/17 03:31:28;;;;;;;1999.90;999.90;;;7.00;99.90;;;;;;5083367;28;20032;-71
2023/04/17 03:33:54;;;;;;;1999.90;999.90;;;7.10;99.90;;;;;;5076192;28;20032;-72
2023/04/17 03:36:20;;;;;;;1999.90;999.90;;;7.10;99.90;;;;;;5085944;28;20033;-72
2023/04/17 03:38:45;;;;;;;1999.90;999.90;;;7.10;99.90;;;;;;5077855;28;20020;-72
2023/04/17 03:41:11;;;;;;;1999.90;999.90;;;7.00;99.90;;;;;;5052552;28;20024;-72
2023/04/17 03:43:36;;;;;;;1999.90;999.90;;;6.90;99.90;;;;;;5058204;28;20055;-72
2023/04/17 03:46:02;;;;;;;1999.90;999.90;;;7.00;99.90;;;;;;5086402;28;20036;-72
2023/04/17 03:48:28;;;;;;;1999.90;999.90;;;7.00;99.90;;;;;;5059777;28;20100;-72
2023/04/17 03:50:53;;;;;;;1999.90;999.90;;;7.00;99.90;;;;;;5086673;28;20033;-71
2023/04/17 03:53:19;;;;;;;1999.90;999.90;;;7.00;99.90;;;;;;5081103;28;20032;-72
2023/04/17 03:55:45;;;;;;;1999.90;999.90;;;7.00;99.90;;;;;;5079872;28;20037;-72
2023/04/17 03:58:11;;;;;;;1999.90;999.90;;;7.00;99.90;;;;;;5067855;28;20380;-73
2023/04/17 04:00:37;;;;;;;1999.90;999.90;;;7.00;99.90;;;;;;5073870;28;20032;-73
2023/04/17 04:03:03;;;;;;;1999.90;999.90;;;7.00;99.90;;;;;;5048752;28;20037;-73
2023/04/17 04:05:29;;;;;;;1999.90;999.90;;;7.10;99.90;;;;;;5074706;28;20063;-73
2023/04/17 04:07:55;;;;;;;1999.90;999.90;;;7.20;99.90;;;;;;5065193;28;20059;-73
2023/04/17 04:10:20;;;;;;;1999.90;999.90;;;7.10;99.90;;;;;;5073007;28;20036;-73
2023/04/17 04:12:46;;;;;;;1999.90;999.90;;;7.10;99.90;;;;;;5051194;28;20033;-73
2023/04/17 04:15:12;;;;;;;1999.90;999.90;;;7.10;99.90;;;;;;5035194;28;20036;-73
2023/04/17 04:17:38;;;;;;;1999.90;999.90;;;7.00;99.90;;;;;;5071422;28;20028;-73
2023/04/17 04:20:07;;;;;;;1999.90;999.90;;;7.10;99.90;;;;;;5067887;28;20043;-73
2023/04/17 04:22:33;;;;;;;1999.90;999.90;;;7.20;99.90;;;;;;5069329;28;20395;-73
2023/04/17 04:24:59;;;;;;;1999.90;999.90;;;7.20;99.90;;;;;;5075459;28;20032;-73
2023/04/17 04:27:26;;;;;;;1999.90;999.90;;;7.30;99.90;;;;;;5065719;28;20044;-73
2023/04/17 04:29:57;;;;;;;1999.90;999.90;;;7.20;99.90;;;;;;5050920;28;20025;-73
2023/04/17 04:32:24;;;;;;;1999.90;999.90;;;7.20;99.90;;;;;;5070182;28;20028;-74
2023/04/17 04:34:50;;;;;;;1999.90;999.90;;;7.30;99.90;;;;;;5063919;28;20020;-75
2023/04/17 04:37:20;;;;;;;1999.90;999.90;;;7.40;99.90;;;;;;5070071;28;20036;-75
2023/04/17 04:39:52;;;;;;;1999.90;999.90;;;7.30;99.90;;;;;;5064438;28;20390;-74
2023/04/17 04:42:20;;;;;;;1999.90;999.90;;;7.30;99.90;;;;;;5051831;28;20563;-74
2023/04/17 04:44:46;;;;;;;1999.90;999.90;;;7.20;99.90;;;;;;5075928;28;20028;-74
2023/04/17 04:47:11;;;;;;;1999.90;999.90;;;7.20;99.90;;;;;;5065251;28;20592;-74
2023/04/17 04:49:37;;;;;;;1999.90;999.90;;;7.10;99.90;;;;;;5068171;28;20028;-74
2023/04/17 04:52:03;;;;;;;1999.90;999.90;;;7.00;99.90;;;;;;5050976;28;20437;-74
2023/04/17 04:54:28;;;;;;;1999.90;999.90;;;6.90;99.90;;;;;;5049162;28;20407;-74
2023/04/17 04:56:55;;;;;;;1999.90;999.90;;;6.90;99.90;;;;;;5073661;28;20047;-74
2023/04/17 04:59:21;;;;;;;1999.90;999.90;;;7.10;99.90;;;;;;5069240;28;20040;-74
2023/04/17 05:01:47;;;;;;;1999.90;999.90;;;7.10;99.90;;;;;;5053367;28;20043;-74
2023/04/17 05:04:12;;;;;;;1999.90;999.90;;;7.10;99.90;;;;;;5052111;28;20055;-74
2023/04/17 05:06:38;;;;;;;1999.90;999.90;;;7.10;99.90;;;;;;5048140;28;20398;-74
2023/04/17 05:09:04;;;;;;;1999.90;999.90;;;7.20;99.90;;;;;;5069334;28;20483;-74
2023/04/17 05:11:31;;;;;;;1999.90;999.90;;;7.20;99.90;;;;;;5046630;28;20125;-76
2023/04/17 05:13:56;;;;;;;1999.90;999.90;;;7.40;99.90;;;;;;5064383;28;20029;-74
2023/04/17 05:16:22;;;;;;;1999.90;999.90;;;7.30;99.90;;;;;;5068395;28;20032;-75
2023/04/17 05:18:48;;;;;;;1999.90;999.90;;;7.30;99.90;;;;;;5063097;28;20036;-74
2023/04/17 05:21:13;;;;;;;1999.90;999.90;;;7.30;99.90;;;;;;5065796;28;20568;-75
2023/04/17 05:23:39;;;;;;;1999.90;999.90;;;7.30;99.90;;;;;;5065763;28;20170;-74
2023/04/17 05:26:05;;;;;;;1999.90;999.90;;;7.30;99.90;;;;;;5070373;28;20068;-75
2023/04/17 05:28:31;;;;;;;1999.90;999.90;;;7.30;99.90;;;;;;5064499;28;20024;-75
2023/04/17 05:30:57;;;;;;;1999.90;999.90;;;7.20;99.90;;;;;;5069771;28;20036;-75
2023/04/17 05:33:23;;;;;;;1999.90;999.90;;;7.30;99.90;;;;;;5047424;28;20032;-74
2023/04/17 05:35:49;;;;;;;1999.90;999.90;;;7.30;99.90;;;;;;5066982;28;20025;-77
2023/04/17 05:38:15;;;;;;;1999.90;999.90;;;7.40;99.90;;;;;;5045273;28;20044;-75
2023/04/17 05:40:41;;;;;;;1999.90;999.90;;;7.40;99.90;;;;;;5050903;28;20020;-77
2023/04/17 05:43:09;;;;;;;1999.90;999.90;;;7.40;99.90;;;;;;5069219;28;20064;-77
2023/04/17 05:45:35;;;;;;;1999.90;999.90;;;7.50;99.90;;;;;;5072412;28;20116;-77
2023/04/17 05:48:00;;;;;;;1999.90;999.90;;;7.50;99.90;;;;;;5062446;28;20043;-78
2023/04/17 05:50:26;;;;;;;1999.90;999.90;;;7.60;99.90;;;;;;5070673;28;20376;-78
2023/04/17 05:52:52;;;;;;;1999.90;999.90;;;7.60;99.90;;;;;;5048059;28;20056;-77
2023/04/17 05:55:19;;;;;;;1999.90;999.90;;;7.40;99.90;;;;;;5070091;28;20368;-78
2023/04/17 05:57:44;;;;;;;1999.90;999.90;;;7.30;99.90;;;;;;5044844;28;20047;-77
2023/04/17 06:00:12;;;;;;;1999.90;999.90;;;7.40;99.90;;;;;;5052298;28;20040;-77
2023/04/17 06:02:39;;;;;;;1999.90;999.90;;;7.50;99.90;;;;;;5065940;28;20150;-78
2023/04/17 06:05:06;;;;;;;1999.90;999.90;;;7.60;99.90;;;;;;5067386;28;20032;-77
2023/04/17 06:07:37;;;;;;;1999.90;999.90;;;7.80;99.90;;;;;;5065204;28;20063;-77
2023/04/17 06:10:07;;;;;;;1999.90;999.90;;;7.80;99.90;;;;;;5050648;28;20112;-78
2023/04/17 06:12:33;;;;;;;;;;;7.80;99.90;;;;;;5069382;28;20036;-80
2023/04/17 06:14:59;;;;;;;1999.90;999.90;;;7.80;99.90;;;;;;5064466;28;20003;-74
2023/04/17 06:17:25;;;;;;;1999.90;999.90;;;7.80;99.90;;;;;;5048674;28;20028;-75
2023/04/17 06:19:50;;;;;;;1999.90;999.90;;;7.80;99.90;;;;;;5047524;28;20521;-78
2023/04/17 06:22:16;;;;;;;1999.90;999.90;;;7.90;99.90;;;;;;5068335;28;20055;-79
2023/04/17 06:24:42;;;;;;;1999.90;999.90;;;7.80;99.90;;;;;;5061803;28;20028;-84
2023/04/17 06:27:07;;;;;;;1999.90;999.90;;;8.00;99.90;;;;;;5038720;28;20039;-79
2023/04/17 06:29:33;;;;;;;1999.90;999.90;;;8.00;99.90;;;;;;5054491;28;20033;-80
2023/04/17 06:31:59;;;;;;;1999.90;999.90;;;8.20;99.90;;;;;;5060551;28;20515;-78
2023/04/17 06:34:24;;;;;;;1999.90;999.90;;;8.10;99.90;;;;;;5056902;28;20044;-77
2023/04/17 06:36:50;;;;;;;1999.90;999.90;;;8.20;99.90;;;;;;5068155;28;20047;-81
2023/04/17 06:39:16;;;;;;;1999.90;999.90;;;8.10;99.90;;;;;;5080712;28;20107;-78
2023/04/17 06:41:42;;;;;;;1999.90;999.90;;;8.30;99.90;;;;;;5065520;28;20033;-78
2023/04/17 06:44:08;;;;;;;1999.90;999.90;;;8.40;99.90;;;;;;5076796;28;20406;-77
2023/04/17 06:46:33;;;;;;;1999.90;999.90;;;8.30;99.90;;;;;;5054004;28;20071;-77
2023/04/17 06:49:00;;;;;;;1999.90;999.90;;;8.30;99.90;;;;;;5071281;28;20434;-78
2023/04/17 06:51:27;;;;;;;1999.90;999.90;;;8.20;99.90;;;;;;5073257;28;20036;-77
2023/04/17 06:53:53;;;;;;;1999.90;999.90;;;8.50;99.90;;;;;;5067265;28;20025;-78
2023/04/17 06:56:19;;;;;;;1999.90;999.90;;;8.50;99.90;;;;;;5070712;28;20033;-73
2023/04/17 06:58:45;;;;;;;1999.90;999.90;;;8.50;99.90;;;;;;5052001;28;20070;-76
2023/04/17 07:01:12;;;;;;;1999.90;999.90;;;8.50;99.90;;;;;;5056308;28;20033;-76
2023/04/17 07:03:38;;;;;;;1999.90;999.90;;;8.50;99.90;;;;;;5072657;28;20198;-76
2023/04/17 07:06:04;;;;;;;1999.90;999.90;;;8.40;99.90;;;;;;5067837;28;20090;-76
2023/04/17 07:08:30;;;;;;;1999.90;999.90;;;8.50;99.90;;;;;;5054552;28;20083;-78
2023/04/17 07:10:56;;;;;;;1999.90;999.90;;;8.60;99.90;;;;;;5067294;28;20491;-77
2023/04/17 07:13:21;;;;;;;1999.90;999.90;;;8.50;99.90;;;;;;5069293;28;20020;-78
2023/04/17 07:15:54;;;;;;;1999.90;999.90;;;8.60;99.90;;;;;;5066677;28;20426;-77
2023/04/17 07:18:20;;;;;;;1999.90;999.90;;;8.70;99.90;;;;;;5068289;28;20562;-78
2023/04/17 07:20:47;;;;;;;1999.90;999.90;;;8.90;99.90;;;;;;5047672;28;20047;-76
2023/04/17 07:23:13;;;;;;;1999.90;999.90;;;9.00;99.90;;;;;;5069217;28;20064;-78
2023/04/17 07:25:38;;;;;;;1999.90;999.90;;;9.00;99.90;;;;;;5066058;28;20033;-78
2023/04/17 07:28:06;;;;;;;1999.90;999.90;;;9.00;99.90;;;;;;5065380;28;20194;-78
2023/04/17 07:30:32;;;;;;;1999.90;999.90;;;9.00;99.90;;;;;;5066882;28;20029;-79
2023/04/17 07:32:59;;;;;;;1999.90;999.90;;;9.00;99.90;;;;;;5035627;28;20027;-77
2023/04/17 07:35:25;;;;;;;1999.90;999.90;;;9.00;99.90;;;;;;5050596;28;20045;-77
2023/04/17 07:37:50;;;;;;;1999.90;999.90;;;8.90;99.90;;;;;;5071783;28;20166;-77
2023/04/17 07:40:17;;;;;;;1999.90;999.90;;;9.20;99.90;;;;;;5054761;28;20510;-77
2023/04/17 07:42:43;;;;;;;1999.90;999.90;;;9.30;99.90;;;;;;5053202;28;20050;-77
2023/04/17 07:45:09;;;;;;;1999.90;999.90;;;9.40;99.90;;;;;;5068137;28;20510;-77
2023/04/17 07:47:35;;;;;;;1999.90;999.90;;;9.30;99.90;;;;;;5072080;28;20117;-77
2023/04/17 07:50:02;;;;;;;1999.90;999.90;;;9.10;99.90;;;;;;5072238;28;20066;-78
2023/04/17 07:52:28;;;;;;;1999.90;999.90;;;9.20;99.90;;;;;;5070305;28;20499;-77
2023/04/17 07:54:55;;;;;;;1999.90;999.90;;;9.50;99.90;;;;;;5075421;28;20106;-78
2023/04/17 07:57:21;;;;;;;1999.90;999.90;;;9.90;99.90;;;;;;5072137;28;20032;-77
2023/04/17 07:59:47;;;;;;;1999.90;999.90;;;9.90;99.90;;;;;;5057017;28;20481;-77
2023/04/17 08:02:14;;;;;;;1999.90;999.90;;;10.10;99.90;;;;;;5075602;28;20021;-77
2023/04/17 08:04:40;;;;;;;1999.90;999.90;;;10.00;99.90;;;;;;5076435;28;20043;-74
2023/04/17 08:07:09;;;;;;;1999.90;999.90;;;10.10;99.90;;;;;;5073245;28;20021;-74
2023/04/17 08:09:36;;;;;;;1999.90;999.90;;;9.80;99.90;;;;;;5051963;28;20044;-74
2023/04/17 08:12:02;;;;;;;1999.90;999.90;;;9.80;99.90;;;;;;5048739;28;20048;-75
2023/04/17 08:14:28;;;;;;;1999.90;999.90;;;9.60;99.90;;;;;;5072087;28;20115;-75
2023/04/17 08:16:54;;;;;;;1999.90;999.90;;;9.60;99.90;;;;;;5052243;28;20208;-74
2023/04/17 08:19:20;;;;;;;1999.90;999.90;;;9.60;99.90;;;;;;5055087;28;20036;-75
2023/04/17 08:21:49;;;;;;;1999.90;999.90;;;9.80;99.90;;;;;;5062750;28;20043;-75
2023/04/17 08:24:16;;;;;;;1999.90;999.90;;;10.00;99.90;;;;;;5069891;28;20397;-75
2023/04/17 08:26:42;;;;;;;1999.90;999.90;;;10.00;99.90;;;;;;5036855;28;20096;-75
2023/04/17 08:29:08;;;;;;;1999.90;999.90;;;10.00;99.90;;;;;;5065603;28;20683;-75
2023/04/17 08:31:38;;;;;;;1999.90;999.90;;;10.00;99.90;;;;;;5065763;28;20158;-75
2023/04/17 08:34:04;;;;;;;1999.90;999.90;;;10.00;99.90;;;;;;5064145;28;20146;-74
2023/04/17 08:36:30;;;;;;;1999.90;999.90;;;9.90;99.90;;;;;;5051509;28;20123;-78
2023/04/17 08:38:56;;;;;;;1999.90;999.90;;;9.90;99.90;;;;;;5047463;28;20029;-75
2023/04/17 08:41:24;;;;;;;1999.90;999.90;;;10.10;99.90;;;;;;5043006;28;20021;-75
2023/04/17 08:43:50;;;;;;;1999.90;999.90;;;10.30;99.90;;;;;;5036881;28;20047;-75
2023/04/17 08:46:23;;;;;;;1999.90;999.90;;;10.60;99.90;;;;;;5067355;28;20547;-75
2023/04/17 08:48:49;;;;;;;1999.90;999.90;;;10.90;99.90;;;;;;5068969;28;20043;-75
2023/04/17 08:51:15;;;;;;;1999.90;999.90;;;11.20;99.90;;;;;;5064283;28;20029;-75
2023/04/17 08:53:40;;;;;;;1999.90;999.90;;;10.80;99.90;;;;;;5073267;28;20090;-75
2023/04/17 08:56:06;;;;;;;1999.90;999.90;;;10.80;99.90;;;;;;5051628;28;20086;-75
2023/04/17 08:58:33;;;;;;;1999.90;999.90;;;10.80;99.90;;;;;;5052320;28;20062;-75
2023/04/17 09:01:15;;;;;;;1999.90;999.90;;;10.60;99.90;;;;;;5063220;28;20048;-75
2023/04/17 09:03:46;;;;;;;1999.90;999.90;;;10.50;99.90;;;;;;5056679;28;20075;-75
2023/04/17 09:06:13;;;;;;;1999.90;999.90;;;10.70;99.90;;;;;;5052041;28;20043;-75
2023/04/17 09:08:57;;;;;;;1999.90;999.90;;;10.80;99.90;;;;;;5069091;28;20144;-72
2023/04/17 09:11:22;;;;;;;1999.90;999.90;;;11.20;99.90;;;;;;5046432;28;20102;-75
2023/04/17 09:13:48;;;;;;;1999.90;999.90;;;11.50;99.90;;;;;;5068372;28;20725;-75
2023/04/17 09:16:20;;;;;;;1999.90;999.90;;;11.60;99.90;;;;;;5046504;28;20028;-75
2023/04/17 09:18:46;;;;;;;1999.90;999.90;;;11.70;99.90;;;;;;5068077;28;20375;-75
2023/04/17 09:21:13;;;;;;;1999.90;999.90;;;11.70;99.90;;;;;;5063375;28;20436;-74
2023/04/17 09:23:54;;;;;;;1999.90;999.90;;;11.90;99.90;;;;;;5073999;28;20044;-75
2023/04/17 09:26:29;;;;;;;1999.90;999.90;;;12.10;99.90;;;;;;5049549;28;20682;-75
2023/04/17 09:29:02;;;;;;;1999.90;999.90;;;12.40;99.90;;;;;;5058472;28;20084;-75
2023/04/17 09:31:30;;;;;;;1999.90;999.90;;;12.60;99.90;;;;;;5065015;28;20398;-75
2023/04/17 09:34:00;;;;;;;1999.90;999.90;;;11.80;99.90;;;;;;5063160;28;20025;-75
2023/04/17 09:36:29;;;;;;;1999.90;999.90;;;11.90;99.90;;;;;;5052452;28;20040;-75
2023/04/17 09:38:55;;;;;;;1999.90;999.90;;;12.30;99.90;;;;;;5074672;28;20036;-75
2023/04/17 09:41:26;;;;;;;1999.90;999.90;;;12.00;99.90;;;;;;5063996;28;20067;-75
2023/04/17 09:44:00;;;;;;;1999.90;999.90;;;11.70;99.90;;;;;;5066690;28;20043;-75
2023/04/17 09:46:41;;;;;;;1999.90;999.90;;;11.30;99.90;;;;;;5066050;28;20036;-75
2023/04/17 09:49:19;;;;;;;1999.90;999.90;;;12.20;99.90;;;;;;5050726;28;20021;-75
2023/04/17 09:51:45;;;;;;;1999.90;999.90;;;12.20;99.90;;;;;;5069109;28;20036;-75
2023/04/17 09:54:16;;;;;;;1999.90;999.90;;;12.80;99.90;;;;;;5067804;28;20020;-75
2023/04/17 09:56:42;;;;;;;;;;;12.70;99.90;;;;;;5067928;28;20054;-75
2023/04/17 09:59:08;;;;;;;1999.90;999.90;;;12.80;99.90;;;;;;5072590;28;19943;-76
2023/04/17 10:01:36;;;;;;;1999.90;999.90;;;12.40;99.90;;;;;;5056422;28;20074;-75
2023/04/17 10:04:03;;;;;;;1999.90;999.90;;;12.20;99.90;;;;;;5069088;28;20674;-75
2023/04/17 10:06:32;;;;;;;1999.90;999.90;;;11.80;99.90;;;;;;5070360;28;20131;-75
2023/04/17 10:08:58;;;;;;;1999.90;999.90;;;11.60;99.90;;;;;;5053955;28;20111;-75
2023/04/17 10:11:28;;;;;;;1999.90;999.90;;;12.00;99.90;;;;;;5053564;28;20621;-75
2023/04/17 10:14:23;;;;;;;1999.90;999.90;;;12.20;99.90;;;;;;5067702;28;20673;-75
2023/04/17 10:16:49;;;;;;;1999.90;999.90;;;11.90;99.90;;;;;;5064744;28;20032;-75
2023/04/17 10:19:35;;;;;;;1999.90;999.90;;;11.30;99.90;;;;;;5051443;28;20040;-75
2023/04/17 10:22:19;;;;;;;1999.90;999.90;;;10.70;99.90;;;;;;5061461;28;20545;-75
2023/04/17 10:24:46;;;;;;;1999.90;999.90;;;10.70;99.90;;;;;;5069433;28;20036;-72
2023/04/17 10:27:29;;;;;;;1999.90;999.90;;;10.90;99.90;;;;;;5072530;28;20052;-72
2023/04/17 10:30:01;;;;;;;1999.90;999.90;;;10.50;99.90;;;;;;5065588;28;20039;-74
2023/04/17 10:32:28;;;;;;;1999.90;999.90;;;10.90;99.90;;;;;;5073923;28;20036;-72
2023/04/17 10:34:59;;;;;;;1999.90;999.90;;;11.80;99.90;;;;;;5063628;28;20040;-72
2023/04/17 10:37:47;;;;;;;1999.90;999.90;;;12.30;99.90;;;;;;5070857;28;20085;-72
2023/04/17 10:40:24;;;;;;;1999.90;999.90;;;12.50;99.90;;;;;;5070547;28;20168;-71
2023/04/17 10:43:11;;;;;;;1999.90;999.90;;;11.90;99.90;;;;;;5066016;28;20039;-72
2023/04/17 10:45:53;;;;;;;1999.90;999.90;;;11.20;99.90;;;;;;5072141;28;20036;-72
2023/04/17 10:48:37;;;;;;;1999.90;999.90;;;11.90;99.90;;;;;;5054784;28;20028;-72
2023/04/17 10:51:39;;;;;;;1999.90;999.90;;;12.10;99.90;;;;;;5056359;28;20021;-72
2023/04/17 10:54:08;;;;;;;1999.90;999.90;;;12.60;99.90;;;;;;4974019;28;20157;-72
2023/04/17 10:56:45;;;;;;;1999.90;999.90;;;13.30;99.90;;;;;;5033191;28;20063;-71
2023/04/17 10:59:15;;;;;;;1999.90;999.90;;;13.70;99.90;;;;;;5068354;28;20107;-72
2023/04/17 11:01:47;;;;;;;1999.90;999.90;;;13.90;99.90;;;;;;5078049;28;20036;-72
2023/04/17 11:04:23;;;;;;;1999.90;999.90;;;13.80;90.10;;;;;;5069464;28;20029;-72
2023/04/17 11:06:52;;;;;;;1999.90;999.90;;;13.90;83.70;;;;;;5073459;28;20549;-75
2023/04/17 11:09:20;;;;;;;1999.90;999.90;;;14.20;83.30;;;;;;5052672;28;20442;-74
2023/04/17 11:11:46;;;;;;;1999.90;999.90;;;14.40;79.60;;;;;;5062565;28;20024;-75
2023/04/17 11:14:13;;;;;;;1999.90;999.90;;;14.80;76.20;;;;;;5077898;28;20040;-75
2023/04/17 11:16:40;;;;;;;1999.90;999.90;;;14.10;74.10;;;;;;5080365;28;20040;-75
2023/04/17 11:19:12;;;;;;;1999.90;999.90;;;14.30;75.00;;;;;;5071239;28;20033;-75
2023/04/17 11:21:39;;;;;;;1999.90;999.90;;;15.10;70.10;;;;;;5078500;28;20043;-74
2023/04/17 11:24:05;;;;;;;1999.90;999.90;;;14.90;73.50;;;;;;5074722;28;20162;-74
2023/04/17 11:26:30;;;;;;;1999.90;999.90;;;14.90;72.20;;;;;;5070242;28;20082;-75
2023/04/17 11:28:58;;;;;;;1999.90;999.90;;;14.80;72.90;;;;;;5059016;28;20032;-75
2023/04/17 11:31:24;;;;;;;1999.90;999.90;;;14.90;73.60;;;;;;5073367;28;20040;-76
2023/04/17 11:33:50;;;;;;;1999.90;999.90;;;15.50;70.60;;;;;;5069025;28;20029;-76
2023/04/17 11:36:15;;;;;;;1999.90;999.90;;;16.00;69.70;;;;;;5075423;28;20035;-76
2023/04/17 11:38:48;;;;;;;1999.90;999.90;;;15.70;69.60;;;;;;5058512;28;20033;-75
2023/04/17 11:41:13;;;;;;;1999.90;999.90;;;15.20;69.10;;;;;;5066442;28;20097;-76
2023/04/17 11:43:39;;;;;;;1999.90;999.90;;;15.00;67.90;;;;;;5040569;28;20478;-76
2023/04/17 11:46:05;;;;;;;1999.90;999.90;;;15.50;63.70;;;;;;5057444;28;20036;-76
2023/04/17 11:48:31;;;;;;;1999.90;999.90;;;15.50;65.20;;;;;;5051137;28;20085;-76
2023/04/17 11:51:00;;;;;;;1999.90;999.90;;;14.80;68.00;;;;;;5062130;28;20029;-76
2023/04/17 11:53:26;;;;;;;1999.90;999.90;;;15.40;66.40;;;;;;5065528;28;20029;-77
2023/04/17 11:56:14;;;;;;;1999.90;999.90;;;15.30;66.00;;;;;;5070806;28;20527;-77
2023/04/17 11:58:54;;;;;;;1999.90;999.90;;;15.60;66.80;;;;;;5066814;28;20055;-77
2023/04/17 12:01:24;;;;;;;1999.90;999.90;;;17.50;63.30;;;;;;5069712;28;20487;-77
2023/04/17 12:03:51;;;;;;;1999.90;999.90;;;18.70;62.70;;;;;;5057388;28;20281;-77
2023/04/17 12:06:17;;;;;;;1999.90;999.90;;;20.30;59.20;;;;;;5071476;28;20545;-77
2023/04/17 12:08:52;;;;;;;1999.90;999.90;;;20.20;56.30;;;;;;5070724;28;20040;-77